sensor_id;sensor_type;location;lat;lon;timestamp;P1;durP1;ratioP1;P2;durP2;ratioP2
80411;SDS011;69749;42.684;23.360;2024-03-02T00:00:20;32.55;;;16.17;;
80411;SDS011;69749;42.684;23.360;2024-03-02T00:02:47;30.42;;;15.25;;
80411;SDS011;69749;42.684;23.360;2024-03-02T00:05:18;33.50;;;16.20;;
80411;SDS011;69749;42.684;23.360;2024-03-02T00:07:45;26.67;;;15.35;;
80411;SDS011;69749;42.684;23.360;2024-03-02T00:10:19;33.33;;;16.33;;
80411;SDS011;69749;42.684;23.360;2024-03-02T00:12:49;28.77;;;15.27;;
80411;SDS011;69749;42.684;23.360;2024-03-02T00:18:00;33.45;;;16.70;;
80411;SDS011;69749;42.684;23.360;2024-03-02T00:20:26;32.97;;;15.57;;
80411;SDS011;69749;42.684;23.360;2024-03-02T00:23:01;33.90;;;15.82;;
80411;SDS011;69749;42.684;23.360;2024-03-02T00:25:51;31.88;;;15.82;;
80411;SDS011;69749;42.684;23.360;2024-03-02T00:28:25;33.85;;;15.75;;
80411;SDS011;69749;42.684;23.360;2024-03-02T00:33:27;32.97;;;16.02;;
80411;SDS011;69749;42.684;23.360;2024-03-02T00:36:01;35.17;;;17.15;;
80411;SDS011;69749;42.684;23.360;2024-03-02T00:38:30;30.90;;;15.38;;
80411;SDS011;69749;42.684;23.360;2024-03-02T00:40:58;28.42;;;15.27;;
80411;SDS011;69749;42.684;23.360;2024-03-02T00:46:07;33.47;;;16.17;;
80411;SDS011;69749;42.684;23.360;2024-03-02T00:48:33;27.40;;;14.10;;
80411;SDS011;69749;42.684;23.360;2024-03-02T00:51:02;29.73;;;15.32;;
80411;SDS011;69749;42.684;23.360;2024-03-02T00:53:31;30.00;;;14.73;;
80411;SDS011;69749;42.684;23.360;2024-03-02T00:55:58;30.85;;;14.25;;
80411;SDS011;69749;42.684;23.360;2024-03-02T00:58:24;29.58;;;14.95;;
80411;SDS011;69749;42.684;23.360;2024-03-02T01:00:50;27.23;;;13.98;;
80411;SDS011;69749;42.684;23.360;2024-03-02T01:03:15;28.35;;;13.43;;
80411;SDS011;69749;42.684;23.360;2024-03-02T01:05:41;29.55;;;14.32;;
80411;SDS011;69749;42.684;23.360;2024-03-02T01:08:07;29.95;;;14.13;;
80411;SDS011;69749;42.684;23.360;2024-03-02T01:10:34;28.70;;;14.52;;
80411;SDS011;69749;42.684;23.360;2024-03-02T01:12:59;27.25;;;14.38;;
80411;SDS011;69749;42.684;23.360;2024-03-02T01:15:25;29.38;;;14.77;;
80411;SDS011;69749;42.684;23.360;2024-03-02T01:17:50;28.63;;;14.90;;
80411;SDS011;69749;42.684;23.360;2024-03-02T01:20:16;27.48;;;13.73;;
80411;SDS011;69749;42.684;23.360;2024-03-02T01:22:42;27.90;;;14.80;;
80411;SDS011;69749;42.684;23.360;2024-03-02T01:25:08;28.10;;;14.07;;
80411;SDS011;69749;42.684;23.360;2024-03-02T01:27:34;26.67;;;13.10;;
80411;SDS011;69749;42.684;23.360;2024-03-02T01:29:59;27.67;;;13.98;;
80411;SDS011;69749;42.684;23.360;2024-03-02T01:32:25;27.00;;;13.35;;
80411;SDS011;69749;42.684;23.360;2024-03-02T01:34:50;23.65;;;13.15;;
80411;SDS011;69749;42.684;23.360;2024-03-02T01:37:16;25.83;;;14.25;;
80411;SDS011;69749;42.684;23.360;2024-03-02T01:39:41;29.73;;;14.48;;
80411;SDS011;69749;42.684;23.360;2024-03-02T01:42:07;34.00;;;16.33;;
80411;SDS011;69749;42.684;23.360;2024-03-02T01:44:32;27.10;;;15.27;;
80411;SDS011;69749;42.684;23.360;2024-03-02T01:46:58;30.17;;;16.35;;
80411;SDS011;69749;42.684;23.360;2024-03-02T01:49:23;31.00;;;15.50;;
80411;SDS011;69749;42.684;23.360;2024-03-02T01:51:49;34.88;;;15.55;;
80411;SDS011;69749;42.684;23.360;2024-03-02T01:54:14;32.50;;;16.23;;
80411;SDS011;69749;42.684;23.360;2024-03-02T01:56:40;34.60;;;15.23;;
80411;SDS011;69749;42.684;23.360;2024-03-02T01:59:06;32.97;;;17.05;;
80411;SDS011;69749;42.684;23.360;2024-03-02T02:01:31;30.52;;;15.75;;
80411;SDS011;69749;42.684;23.360;2024-03-02T02:03:57;34.42;;;16.50;;
80411;SDS011;69749;42.684;23.360;2024-03-02T02:06:22;28.95;;;15.75;;
80411;SDS011;69749;42.684;23.360;2024-03-02T02:08:48;31.40;;;15.73;;
80411;SDS011;69749;42.684;23.360;2024-03-02T02:11:17;31.98;;;14.73;;
80411;SDS011;69749;42.684;23.360;2024-03-02T02:13:42;29.75;;;15.80;;
80411;SDS011;69749;42.684;23.360;2024-03-02T02:16:08;34.47;;;15.60;;
80411;SDS011;69749;42.684;23.360;2024-03-02T02:18:34;33.95;;;16.55;;
80411;SDS011;69749;42.684;23.360;2024-03-02T02:21:01;28.98;;;16.42;;
80411;SDS011;69749;42.684;23.360;2024-03-02T02:23:27;32.38;;;15.63;;
80411;SDS011;69749;42.684;23.360;2024-03-02T02:25:52;30.02;;;15.20;;
80411;SDS011;69749;42.684;23.360;2024-03-02T02:28:18;33.05;;;16.60;;
80411;SDS011;69749;42.684;23.360;2024-03-02T02:30:43;37.20;;;16.63;;
80411;SDS011;69749;42.684;23.360;2024-03-02T02:33:09;31.27;;;15.05;;
80411;SDS011;69749;42.684;23.360;2024-03-02T02:35:34;31.80;;;16.00;;
80411;SDS011;69749;42.684;23.360;2024-03-02T02:38:00;34.03;;;16.25;;
80411;SDS011;69749;42.684;23.360;2024-03-02T02:40:26;30.15;;;15.40;;
80411;SDS011;69749;42.684;23.360;2024-03-02T02:42:52;30.70;;;16.00;;
80411;SDS011;69749;42.684;23.360;2024-03-02T02:45:18;31.63;;;15.95;;
80411;SDS011;69749;42.684;23.360;2024-03-02T02:47:44;32.22;;;15.43;;
80411;SDS011;69749;42.684;23.360;2024-03-02T02:50:10;36.53;;;17.75;;
80411;SDS011;69749;42.684;23.360;2024-03-02T02:52:37;33.08;;;15.70;;
80411;SDS011;69749;42.684;23.360;2024-03-02T02:55:04;36.50;;;17.55;;
80411;SDS011;69749;42.684;23.360;2024-03-02T02:57:32;32.65;;;16.80;;
80411;SDS011;69749;42.684;23.360;2024-03-02T03:00:01;32.78;;;16.15;;
80411;SDS011;69749;42.684;23.360;2024-03-02T03:02:30;31.98;;;14.98;;
80411;SDS011;69749;42.684;23.360;2024-03-02T03:04:56;30.00;;;15.30;;
80411;SDS011;69749;42.684;23.360;2024-03-02T03:07:22;31.10;;;16.08;;
80411;SDS011;69749;42.684;23.360;2024-03-02T03:09:48;33.97;;;15.85;;
80411;SDS011;69749;42.684;23.360;2024-03-02T03:12:13;31.02;;;16.25;;
80411;SDS011;69749;42.684;23.360;2024-03-02T03:14:40;27.17;;;15.68;;
80411;SDS011;69749;42.684;23.360;2024-03-02T03:17:06;30.90;;;15.93;;
80411;SDS011;69749;42.684;23.360;2024-03-02T03:19:33;28.45;;;15.07;;
80411;SDS011;69749;42.684;23.360;2024-03-02T03:21:58;32.70;;;15.55;;
80411;SDS011;69749;42.684;23.360;2024-03-02T03:24:24;32.45;;;17.02;;
80411;SDS011;69749;42.684;23.360;2024-03-02T03:26:49;32.85;;;16.70;;
80411;SDS011;69749;42.684;23.360;2024-03-02T03:29:15;31.80;;;16.30;;
80411;SDS011;69749;42.684;23.360;2024-03-02T03:31:40;33.17;;;17.08;;
80411;SDS011;69749;42.684;23.360;2024-03-02T03:34:06;33.05;;;15.90;;
80411;SDS011;69749;42.684;23.360;2024-03-02T03:36:31;25.95;;;14.60;;
80411;SDS011;69749;42.684;23.360;2024-03-02T03:38:57;33.10;;;15.57;;
80411;SDS011;69749;42.684;23.360;2024-03-02T03:41:22;33.30;;;16.45;;
80411;SDS011;69749;42.684;23.360;2024-03-02T03:43:48;32.40;;;17.15;;
80411;SDS011;69749;42.684;23.360;2024-03-02T03:46:13;33.78;;;16.55;;
80411;SDS011;69749;42.684;23.360;2024-03-02T03:48:39;36.30;;;17.38;;
80411;SDS011;69749;42.684;23.360;2024-03-02T03:51:04;31.67;;;15.98;;
80411;SDS011;69749;42.684;23.360;2024-03-02T03:53:30;36.53;;;15.52;;
80411;SDS011;69749;42.684;23.360;2024-03-02T03:55:55;34.55;;;16.40;;
80411;SDS011;69749;42.684;23.360;2024-03-02T03:58:21;34.95;;;16.40;;
80411;SDS011;69749;42.684;23.360;2024-03-02T04:00:46;33.03;;;16.63;;
80411;SDS011;69749;42.684;23.360;2024-03-02T04:03:12;34.35;;;15.85;;
80411;SDS011;69749;42.684;23.360;2024-03-02T04:05:38;34.45;;;16.30;;
80411;SDS011;69749;42.684;23.360;2024-03-02T04:08:03;29.65;;;14.90;;
80411;SDS011;69749;42.684;23.360;2024-03-02T04:10:29;29.58;;;14.77;;
80411;SDS011;69749;42.684;23.360;2024-03-02T04:12:55;34.72;;;17.10;;
80411;SDS011;69749;42.684;23.360;2024-03-02T04:15:21;35.15;;;16.20;;
80411;SDS011;69749;42.684;23.360;2024-03-02T04:17:48;29.20;;;15.02;;
80411;SDS011;69749;42.684;23.360;2024-03-02T04:20:13;37.75;;;17.10;;
80411;SDS011;69749;42.684;23.360;2024-03-02T04:22:39;29.73;;;16.00;;
80411;SDS011;69749;42.684;23.360;2024-03-02T04:25:04;35.90;;;16.45;;
80411;SDS011;69749;42.684;23.360;2024-03-02T04:27:30;35.58;;;16.42;;
80411;SDS011;69749;42.684;23.360;2024-03-02T04:29:58;37.17;;;17.33;;
80411;SDS011;69749;42.684;23.360;2024-03-02T04:32:25;30.52;;;15.98;;
80411;SDS011;69749;42.684;23.360;2024-03-02T04:34:53;36.80;;;16.90;;
80411;SDS011;69749;42.684;23.360;2024-03-02T04:37:19;32.58;;;16.45;;
80411;SDS011;69749;42.684;23.360;2024-03-02T04:39:45;34.00;;;16.42;;
80411;SDS011;69749;42.684;23.360;2024-03-02T04:42:10;37.90;;;15.90;;
80411;SDS011;69749;42.684;23.360;2024-03-02T04:44:36;31.77;;;16.02;;
80411;SDS011;69749;42.684;23.360;2024-03-02T04:47:03;33.42;;;16.40;;
80411;SDS011;69749;42.684;23.360;2024-03-02T04:49:29;33.17;;;16.23;;
80411;SDS011;69749;42.684;23.360;2024-03-02T04:51:55;37.30;;;15.48;;
80411;SDS011;69749;42.684;23.360;2024-03-02T04:54:21;33.65;;;16.45;;
80411;SDS011;69749;42.684;23.360;2024-03-02T04:56:47;35.85;;;16.88;;
80411;SDS011;69749;42.684;23.360;2024-03-02T04:59:17;35.10;;;15.80;;
80411;SDS011;69749;42.684;23.360;2024-03-02T05:01:43;35.10;;;16.23;;
80411;SDS011;69749;42.684;23.360;2024-03-02T05:04:10;37.92;;;18.15;;
80411;SDS011;69749;42.684;23.360;2024-03-02T05:06:39;38.42;;;18.35;;
80411;SDS011;69749;42.684;23.360;2024-03-02T05:09:08;36.63;;;17.55;;
80411;SDS011;69749;42.684;23.360;2024-03-02T05:11:34;37.17;;;17.65;;
80411;SDS011;69749;42.684;23.360;2024-03-02T05:14:02;31.63;;;16.90;;
80411;SDS011;69749;42.684;23.360;2024-03-02T05:16:28;37.20;;;16.25;;
80411;SDS011;69749;42.684;23.360;2024-03-02T05:18:54;32.25;;;16.05;;
80411;SDS011;69749;42.684;23.360;2024-03-02T05:21:19;34.35;;;15.70;;
80411;SDS011;69749;42.684;23.360;2024-03-02T05:23:45;35.25;;;15.32;;
80411;SDS011;69749;42.684;23.360;2024-03-02T05:26:10;33.63;;;16.92;;
80411;SDS011;69749;42.684;23.360;2024-03-02T05:28:39;39.97;;;17.15;;
80411;SDS011;69749;42.684;23.360;2024-03-02T05:31:04;38.13;;;16.27;;
80411;SDS011;69749;42.684;23.360;2024-03-02T05:33:30;37.55;;;16.52;;
80411;SDS011;69749;42.684;23.360;2024-03-02T05:38:23;32.08;;;15.60;;
80411;SDS011;69749;42.684;23.360;2024-03-02T05:40:49;36.03;;;16.35;;
80411;SDS011;69749;42.684;23.360;2024-03-02T05:43:14;29.77;;;15.43;;
80411;SDS011;69749;42.684;23.360;2024-03-02T05:45:40;35.03;;;16.65;;
80411;SDS011;69749;42.684;23.360;2024-03-02T05:48:06;34.80;;;17.65;;
80411;SDS011;69749;42.684;23.360;2024-03-02T05:50:32;36.63;;;17.33;;
80411;SDS011;69749;42.684;23.360;2024-03-02T05:52:58;32.17;;;16.17;;
80411;SDS011;69749;42.684;23.360;2024-03-02T05:55:24;36.53;;;16.92;;
80411;SDS011;69749;42.684;23.360;2024-03-02T05:57:49;34.88;;;16.40;;
80411;SDS011;69749;42.684;23.360;2024-03-02T06:00:35;37.03;;;16.23;;
80411;SDS011;69749;42.684;23.360;2024-03-02T06:03:00;41.63;;;18.42;;
80411;SDS011;69749;42.684;23.360;2024-03-02T06:05:26;36.92;;;17.30;;
80411;SDS011;69749;42.684;23.360;2024-03-02T06:07:52;38.92;;;16.70;;
80411;SDS011;69749;42.684;23.360;2024-03-02T06:10:17;43.03;;;19.13;;
80411;SDS011;69749;42.684;23.360;2024-03-02T06:12:43;35.15;;;18.63;;
80411;SDS011;69749;42.684;23.360;2024-03-02T06:15:08;40.42;;;18.88;;
80411;SDS011;69749;42.684;23.360;2024-03-02T06:17:35;38.83;;;16.90;;
80411;SDS011;69749;42.684;23.360;2024-03-02T06:20:00;32.80;;;17.40;;
80411;SDS011;69749;42.684;23.360;2024-03-02T06:22:26;34.45;;;17.88;;
80411;SDS011;69749;42.684;23.360;2024-03-02T06:24:51;38.42;;;16.83;;
80411;SDS011;69749;42.684;23.360;2024-03-02T06:27:17;35.75;;;16.42;;
80411;SDS011;69749;42.684;23.360;2024-03-02T06:29:42;35.95;;;15.27;;
80411;SDS011;69749;42.684;23.360;2024-03-02T06:32:08;40.05;;;17.33;;
80411;SDS011;69749;42.684;23.360;2024-03-02T06:34:33;40.55;;;17.27;;
80411;SDS011;69749;42.684;23.360;2024-03-02T06:36:59;36.47;;;18.15;;
80411;SDS011;69749;42.684;23.360;2024-03-02T06:39:24;40.83;;;17.35;;
80411;SDS011;69749;42.684;23.360;2024-03-02T06:41:50;39.85;;;17.95;;
80411;SDS011;69749;42.684;23.360;2024-03-02T06:44:16;36.15;;;17.60;;
80411;SDS011;69749;42.684;23.360;2024-03-02T06:46:42;37.28;;;16.10;;
80411;SDS011;69749;42.684;23.360;2024-03-02T06:49:07;38.10;;;16.48;;
80411;SDS011;69749;42.684;23.360;2024-03-02T06:51:34;42.17;;;17.88;;
80411;SDS011;69749;42.684;23.360;2024-03-02T06:54:00;37.78;;;17.73;;
80411;SDS011;69749;42.684;23.360;2024-03-02T06:56:25;38.33;;;17.73;;
80411;SDS011;69749;42.684;23.360;2024-03-02T06:58:51;36.13;;;17.40;;
80411;SDS011;69749;42.684;23.360;2024-03-02T07:01:17;40.00;;;18.52;;
80411;SDS011;69749;42.684;23.360;2024-03-02T07:03:42;35.17;;;17.02;;
80411;SDS011;69749;42.684;23.360;2024-03-02T07:06:11;33.45;;;16.38;;
80411;SDS011;69749;42.684;23.360;2024-03-02T07:08:36;37.30;;;17.73;;
80411;SDS011;69749;42.684;23.360;2024-03-02T07:11:02;36.35;;;17.63;;
80411;SDS011;69749;42.684;23.360;2024-03-02T07:13:28;37.15;;;17.33;;
80411;SDS011;69749;42.684;23.360;2024-03-02T07:15:55;38.35;;;17.50;;
80411;SDS011;69749;42.684;23.360;2024-03-02T07:18:42;39.88;;;17.75;;
80411;SDS011;69749;42.684;23.360;2024-03-02T07:21:12;38.97;;;18.38;;
80411;SDS011;69749;42.684;23.360;2024-03-02T07:23:38;35.45;;;17.75;;
80411;SDS011;69749;42.684;23.360;2024-03-02T07:26:04;37.20;;;18.02;;
80411;SDS011;69749;42.684;23.360;2024-03-02T07:28:29;39.38;;;16.85;;
80411;SDS011;69749;42.684;23.360;2024-03-02T07:30:58;37.90;;;17.15;;
80411;SDS011;69749;42.684;23.360;2024-03-02T07:33:24;37.45;;;19.13;;
80411;SDS011;69749;42.684;23.360;2024-03-02T07:35:50;41.28;;;20.25;;
80411;SDS011;69749;42.684;23.360;2024-03-02T07:38:16;43.95;;;20.92;;
80411;SDS011;69749;42.684;23.360;2024-03-02T07:40:42;48.38;;;22.45;;
80411;SDS011;69749;42.684;23.360;2024-03-02T07:43:07;43.95;;;22.08;;
80411;SDS011;69749;42.684;23.360;2024-03-02T07:45:33;42.60;;;20.40;;
80411;SDS011;69749;42.684;23.360;2024-03-02T07:48:01;47.70;;;21.25;;
80411;SDS011;69749;42.684;23.360;2024-03-02T07:50:29;36.35;;;17.73;;
80411;SDS011;69749;42.684;23.360;2024-03-02T07:52:55;34.00;;;15.57;;
80411;SDS011;69749;42.684;23.360;2024-03-02T07:55:21;40.17;;;16.75;;
80411;SDS011;69749;42.684;23.360;2024-03-02T07:57:46;41.30;;;18.45;;
80411;SDS011;69749;42.684;23.360;2024-03-02T08:00:12;36.95;;;17.27;;
80411;SDS011;69749;42.684;23.360;2024-03-02T08:02:39;34.88;;;16.48;;
80411;SDS011;69749;42.684;23.360;2024-03-02T08:05:06;32.65;;;15.38;;
80411;SDS011;69749;42.684;23.360;2024-03-02T08:07:31;37.53;;;16.25;;
80411;SDS011;69749;42.684;23.360;2024-03-02T08:09:57;34.88;;;16.60;;
80411;SDS011;69749;42.684;23.360;2024-03-02T08:12:22;38.30;;;17.90;;
80411;SDS011;69749;42.684;23.360;2024-03-02T08:14:48;38.08;;;17.80;;
80411;SDS011;69749;42.684;23.360;2024-03-02T08:17:14;38.72;;;18.05;;
80411;SDS011;69749;42.684;23.360;2024-03-02T08:19:39;38.75;;;17.85;;
80411;SDS011;69749;42.684;23.360;2024-03-02T08:22:06;39.72;;;18.95;;
80411;SDS011;69749;42.684;23.360;2024-03-02T08:24:32;44.17;;;19.35;;
80411;SDS011;69749;42.684;23.360;2024-03-02T08:26:58;40.13;;;19.85;;
80411;SDS011;69749;42.684;23.360;2024-03-02T08:29:24;46.92;;;19.90;;
80411;SDS011;69749;42.684;23.360;2024-03-02T08:31:50;37.85;;;17.45;;
80411;SDS011;69749;42.684;23.360;2024-03-02T08:34:15;39.42;;;19.30;;
80411;SDS011;69749;42.684;23.360;2024-03-02T08:36:41;46.65;;;20.55;;
80411;SDS011;69749;42.684;23.360;2024-03-02T08:39:10;48.08;;;22.65;;
80411;SDS011;69749;42.684;23.360;2024-03-02T08:41:49;59.25;;;29.77;;
80411;SDS011;69749;42.684;23.360;2024-03-02T08:44:14;60.95;;;33.55;;
80411;SDS011;69749;42.684;23.360;2024-03-02T08:46:40;75.35;;;37.70;;
80411;SDS011;69749;42.684;23.360;2024-03-02T08:49:06;69.88;;;39.65;;
80411;SDS011;69749;42.684;23.360;2024-03-02T08:51:32;68.53;;;31.23;;
80411;SDS011;69749;42.684;23.360;2024-03-02T08:53:58;55.72;;;30.25;;
80411;SDS011;69749;42.684;23.360;2024-03-02T08:56:24;51.75;;;26.30;;
80411;SDS011;69749;42.684;23.360;2024-03-02T08:58:50;46.50;;;23.05;;
80411;SDS011;69749;42.684;23.360;2024-03-02T09:01:16;38.10;;;20.15;;
80411;SDS011;69749;42.684;23.360;2024-03-02T09:03:52;44.80;;;20.60;;
80411;SDS011;69749;42.684;23.360;2024-03-02T09:06:36;33.95;;;17.73;;
80411;SDS011;69749;42.684;23.360;2024-03-02T09:09:01;36.78;;;17.77;;
80411;SDS011;69749;42.684;23.360;2024-03-02T09:11:27;34.53;;;18.27;;
80411;SDS011;69749;42.684;23.360;2024-03-02T09:13:53;35.30;;;17.38;;
80411;SDS011;69749;42.684;23.360;2024-03-02T09:16:21;30.27;;;16.40;;
80411;SDS011;69749;42.684;23.360;2024-03-02T09:18:46;34.38;;;17.45;;
80411;SDS011;69749;42.684;23.360;2024-03-02T09:21:12;32.88;;;16.05;;
80411;SDS011;69749;42.684;23.360;2024-03-02T09:23:38;36.72;;;15.90;;
80411;SDS011;69749;42.684;23.360;2024-03-02T09:26:05;34.90;;;17.27;;
80411;SDS011;69749;42.684;23.360;2024-03-02T09:28:30;34.67;;;16.35;;
80411;SDS011;69749;42.684;23.360;2024-03-02T09:30:56;42.75;;;18.95;;
80411;SDS011;69749;42.684;23.360;2024-03-02T09:33:24;36.05;;;16.90;;
80411;SDS011;69749;42.684;23.360;2024-03-02T09:35:50;35.35;;;17.23;;
80411;SDS011;69749;42.684;23.360;2024-03-02T09:38:15;31.73;;;16.00;;
80411;SDS011;69749;42.684;23.360;2024-03-02T09:40:41;34.22;;;16.70;;
80411;SDS011;69749;42.684;23.360;2024-03-02T09:43:07;33.97;;;15.85;;
80411;SDS011;69749;42.684;23.360;2024-03-02T09:45:33;29.10;;;13.98;;
80411;SDS011;69749;42.684;23.360;2024-03-02T09:47:59;37.65;;;17.67;;
80411;SDS011;69749;42.684;23.360;2024-03-02T09:50:24;33.95;;;17.63;;
80411;SDS011;69749;42.684;23.360;2024-03-02T09:52:50;35.88;;;18.27;;
80411;SDS011;69749;42.684;23.360;2024-03-02T09:55:17;38.05;;;18.48;;
80411;SDS011;69749;42.684;23.360;2024-03-02T09:57:44;39.88;;;18.27;;
80411;SDS011;69749;42.684;23.360;2024-03-02T10:00:13;35.58;;;16.55;;
80411;SDS011;69749;42.684;23.360;2024-03-02T10:02:42;31.63;;;16.30;;
80411;SDS011;69749;42.684;23.360;2024-03-02T10:05:08;35.15;;;16.13;;
80411;SDS011;69749;42.684;23.360;2024-03-02T10:07:34;34.38;;;16.67;;
80411;SDS011;69749;42.684;23.360;2024-03-02T10:10:11;33.78;;;16.40;;
80411;SDS011;69749;42.684;23.360;2024-03-02T10:12:38;35.00;;;16.60;;
80411;SDS011;69749;42.684;23.360;2024-03-02T10:15:04;37.17;;;17.80;;
80411;SDS011;69749;42.684;23.360;2024-03-02T10:17:30;36.67;;;17.95;;
80411;SDS011;69749;42.684;23.360;2024-03-02T10:19:56;36.28;;;17.30;;
80411;SDS011;69749;42.684;23.360;2024-03-02T10:22:22;37.58;;;20.92;;
80411;SDS011;69749;42.684;23.360;2024-03-02T10:24:48;35.92;;;18.55;;
80411;SDS011;69749;42.684;23.360;2024-03-02T10:27:18;32.72;;;16.88;;
80411;SDS011;69749;42.684;23.360;2024-03-02T10:29:48;33.80;;;16.45;;
80411;SDS011;69749;42.684;23.360;2024-03-02T10:32:14;32.40;;;15.60;;
80411;SDS011;69749;42.684;23.360;2024-03-02T10:34:41;32.10;;;16.45;;
80411;SDS011;69749;42.684;23.360;2024-03-02T10:37:10;31.65;;;16.40;;
80411;SDS011;69749;42.684;23.360;2024-03-02T10:39:36;34.05;;;16.50;;
80411;SDS011;69749;42.684;23.360;2024-03-02T10:42:02;29.15;;;15.07;;
80411;SDS011;69749;42.684;23.360;2024-03-02T10:44:29;30.13;;;14.40;;
80411;SDS011;69749;42.684;23.360;2024-03-02T10:46:56;28.88;;;12.68;;
80411;SDS011;69749;42.684;23.360;2024-03-02T10:49:25;28.63;;;13.65;;
80411;SDS011;69749;42.684;23.360;2024-03-02T10:51:52;24.73;;;13.20;;
80411;SDS011;69749;42.684;23.360;2024-03-02T10:54:18;23.70;;;12.05;;
80411;SDS011;69749;42.684;23.360;2024-03-02T10:56:44;24.15;;;12.48;;
80411;SDS011;69749;42.684;23.360;2024-03-02T11:01:36;26.98;;;14.10;;
80411;SDS011;69749;42.684;23.360;2024-03-02T11:04:04;30.45;;;14.35;;
80411;SDS011;69749;42.684;23.360;2024-03-02T11:06:33;28.83;;;13.77;;
80411;SDS011;69749;42.684;23.360;2024-03-02T11:09:05;27.95;;;13.77;;
80411;SDS011;69749;42.684;23.360;2024-03-02T11:11:36;26.98;;;12.95;;
80411;SDS011;69749;42.684;23.360;2024-03-02T11:14:07;24.33;;;13.02;;
80411;SDS011;69749;42.684;23.360;2024-03-02T11:16:37;27.30;;;13.30;;
80411;SDS011;69749;42.684;23.360;2024-03-02T11:19:08;25.98;;;13.60;;
80411;SDS011;69749;42.684;23.360;2024-03-02T11:21:36;29.30;;;13.68;;
80411;SDS011;69749;42.684;23.360;2024-03-02T11:26:46;26.05;;;13.05;;
80411;SDS011;69749;42.684;23.360;2024-03-02T11:32:04;28.67;;;15.63;;
80411;SDS011;69749;42.684;23.360;2024-03-02T11:36:57;28.02;;;14.68;;
80411;SDS011;69749;42.684;23.360;2024-03-02T11:39:26;31.75;;;15.48;;
80411;SDS011;69749;42.684;23.360;2024-03-02T11:41:52;25.67;;;14.23;;
80411;SDS011;69749;42.684;23.360;2024-03-02T11:44:19;28.55;;;14.32;;
80411;SDS011;69749;42.684;23.360;2024-03-02T11:46:45;29.00;;;15.00;;
80411;SDS011;69749;42.684;23.360;2024-03-02T11:49:14;27.02;;;14.43;;
80411;SDS011;69749;42.684;23.360;2024-03-02T11:51:49;27.33;;;14.32;;
80411;SDS011;69749;42.684;23.360;2024-03-02T11:54:25;30.20;;;14.50;;
80411;SDS011;69749;42.684;23.360;2024-03-02T11:56:52;29.65;;;14.63;;
80411;SDS011;69749;42.684;23.360;2024-03-02T11:59:19;25.92;;;13.50;;
80411;SDS011;69749;42.684;23.360;2024-03-02T12:01:46;25.92;;;14.95;;
80411;SDS011;69749;42.684;23.360;2024-03-02T12:04:13;24.00;;;13.43;;
80411;SDS011;69749;42.684;23.360;2024-03-02T12:06:38;24.25;;;12.98;;
80411;SDS011;69749;42.684;23.360;2024-03-02T12:09:04;27.88;;;13.07;;
80411;SDS011;69749;42.684;23.360;2024-03-02T12:11:30;22.55;;;13.45;;
80411;SDS011;69749;42.684;23.360;2024-03-02T12:14:14;22.08;;;12.52;;
80411;SDS011;69749;42.684;23.360;2024-03-02T12:16:43;22.98;;;11.55;;
80411;SDS011;69749;42.684;23.360;2024-03-02T12:19:12;24.38;;;14.30;;
80411;SDS011;69749;42.684;23.360;2024-03-02T12:21:38;25.88;;;15.00;;
80411;SDS011;69749;42.684;23.360;2024-03-02T12:24:04;23.60;;;13.85;;
80411;SDS011;69749;42.684;23.360;2024-03-02T12:26:29;26.98;;;15.13;;
80411;SDS011;69749;42.684;23.360;2024-03-02T12:28:55;28.50;;;14.73;;
80411;SDS011;69749;42.684;23.360;2024-03-02T12:31:21;23.20;;;13.02;;
80411;SDS011;69749;42.684;23.360;2024-03-02T12:33:46;23.23;;;13.85;;
80411;SDS011;69749;42.684;23.360;2024-03-02T12:36:13;25.02;;;13.35;;
80411;SDS011;69749;42.684;23.360;2024-03-02T12:38:43;23.20;;;12.50;;
80411;SDS011;69749;42.684;23.360;2024-03-02T12:41:09;26.30;;;15.80;;
80411;SDS011;69749;42.684;23.360;2024-03-02T12:43:34;22.42;;;13.57;;
80411;SDS011;69749;42.684;23.360;2024-03-02T12:46:02;24.00;;;12.88;;
80411;SDS011;69749;42.684;23.360;2024-03-02T12:48:28;23.38;;;12.90;;
80411;SDS011;69749;42.684;23.360;2024-03-02T12:50:54;23.15;;;12.95;;
80411;SDS011;69749;42.684;23.360;2024-03-02T12:53:21;18.92;;;11.65;;
80411;SDS011;69749;42.684;23.360;2024-03-02T12:55:46;16.85;;;10.93;;
80411;SDS011;69749;42.684;23.360;2024-03-02T12:58:18;20.17;;;11.98;;
80411;SDS011;69749;42.684;23.360;2024-03-02T13:00:44;22.38;;;11.02;;
80411;SDS011;69749;42.684;23.360;2024-03-02T13:03:11;22.15;;;12.95;;
80411;SDS011;69749;42.684;23.360;2024-03-02T13:05:36;22.42;;;12.05;;
80411;SDS011;69749;42.684;23.360;2024-03-02T13:08:02;17.55;;;10.82;;
80411;SDS011;69749;42.684;23.360;2024-03-02T13:10:29;19.85;;;11.30;;
80411;SDS011;69749;42.684;23.360;2024-03-02T13:12:58;18.92;;;12.13;;
80411;SDS011;69749;42.684;23.360;2024-03-02T13:15:27;20.73;;;12.25;;
80411;SDS011;69749;42.684;23.360;2024-03-02T13:17:52;20.55;;;11.55;;
80411;SDS011;69749;42.684;23.360;2024-03-02T13:20:18;19.58;;;11.35;;
80411;SDS011;69749;42.684;23.360;2024-03-02T13:22:45;19.45;;;12.27;;
80411;SDS011;69749;42.684;23.360;2024-03-02T13:25:10;27.67;;;14.80;;
80411;SDS011;69749;42.684;23.360;2024-03-02T13:27:36;18.50;;;10.70;;
80411;SDS011;69749;42.684;23.360;2024-03-02T13:30:05;18.17;;;11.85;;
80411;SDS011;69749;42.684;23.360;2024-03-02T13:32:31;19.77;;;11.32;;
80411;SDS011;69749;42.684;23.360;2024-03-02T13:34:57;20.73;;;11.10;;
80411;SDS011;69749;42.684;23.360;2024-03-02T13:37:23;21.95;;;11.50;;
80411;SDS011;69749;42.684;23.360;2024-03-02T13:39:48;22.20;;;12.10;;
80411;SDS011;69749;42.684;23.360;2024-03-02T13:42:14;20.38;;;11.70;;
80411;SDS011;69749;42.684;23.360;2024-03-02T13:44:40;19.00;;;11.38;;
80411;SDS011;69749;42.684;23.360;2024-03-02T13:47:09;20.20;;;11.85;;
80411;SDS011;69749;42.684;23.360;2024-03-02T13:49:34;22.25;;;11.50;;
80411;SDS011;69749;42.684;23.360;2024-03-02T13:52:02;17.63;;;11.25;;
80411;SDS011;69749;42.684;23.360;2024-03-02T13:54:48;20.10;;;12.13;;
80411;SDS011;69749;42.684;23.360;2024-03-02T13:57:14;21.83;;;11.95;;
80411;SDS011;69749;42.684;23.360;2024-03-02T13:59:40;20.17;;;12.75;;
80411;SDS011;69749;42.684;23.360;2024-03-02T14:02:07;17.75;;;11.15;;
80411;SDS011;69749;42.684;23.360;2024-03-02T14:04:34;19.88;;;11.45;;
80411;SDS011;69749;42.684;23.360;2024-03-02T14:07:00;22.98;;;12.70;;
80411;SDS011;69749;42.684;23.360;2024-03-02T14:09:26;21.23;;;12.68;;
80411;SDS011;69749;42.684;23.360;2024-03-02T14:11:52;21.60;;;12.15;;
80411;SDS011;69749;42.684;23.360;2024-03-02T14:14:21;25.85;;;14.02;;
80411;SDS011;69749;42.684;23.360;2024-03-02T14:16:48;22.63;;;13.10;;
80411;SDS011;69749;42.684;23.360;2024-03-02T14:19:13;22.40;;;12.30;;
80411;SDS011;69749;42.684;23.360;2024-03-02T14:21:39;21.08;;;12.52;;
80411;SDS011;69749;42.684;23.360;2024-03-02T14:24:05;26.73;;;15.52;;
80411;SDS011;69749;42.684;23.360;2024-03-02T14:26:34;28.70;;;16.00;;